Jetstar Japan A320 at Kochi on Jun 23rd 2022, flight attendant injured on landing

Last Update: June 28, 2022 / 20:00:28 GMT/Zulu time

Bookmark this article
Incident Facts

Date of incident
Jun 23, 2022

Classification
Accident

Flight number
GK-423

Destination
Kochi, Japan

Aircraft Registration
JA05JJ

Aircraft Type
Airbus A320

ICAO Type Designator
A320

Airport ICAO Code
VOCI

A Jetstar Japan Airbus A320-200, registration JA05JJ performing flight GK-423 from Tokyo Narita to Kochi (Japan), landed on Kochi's runway 32 at about 14:11L (05:11Z).

Japan's TSB reported that a flight attendant received serious injuries (fracture of first sacral fissal) as result of the landing. The occurrence is being investigated.

Metars:
RJOK 230700Z 13010KT 9999 FEW015 BKN025 27/25 Q1009=
RJOK 230600Z 13009KT 9999 FEW020 BKN030 28/25 Q1010=
RJOK 230500Z 16008KT 9999 FEW030 SCT/// 28/26 Q1010=
RJOK 230400Z 16006KT 130V200 9999 FEW030 SCT/// 28/25 Q1010=
RJOK 230300Z 17010KT 9999 FEW025 SCT/// 28/25 Q1011=
RJOK 230200Z 15008KT 9999 FEW025 SCT100 28/24 Q1011=
RJOK 230100Z 17006KT 130V210 9999 FEW020 BKN100 27/23 Q1011=
Incident Facts

Date of incident
Jun 23, 2022

Classification
Accident

Flight number
GK-423

Destination
Kochi, Japan

Aircraft Registration
JA05JJ

Aircraft Type
Airbus A320

ICAO Type Designator
A320

Airport ICAO Code
VOCI

This article is published under license from Avherald.com. © of text by Avherald.com.
Article source

You can read 2 more free articles without a subscription.

Subscribe now and continue reading without any limits!

Are you a subscriber? Login
Subscribe

Read unlimited articles and receive our daily update briefing. Gain better insights into what is happening in commercial aviation safety.

Free newsletter

Want to know more and stay ahead? Get our free weekly newsletter and join 5353 existing subscribers.

By subscribing, you accept our terms and conditions and confirm that you've read our privacy policy.

Send tip

Support AeroInside by sending a small tip amount.

Related articles

Newest articles

Subscribe today

Are you researching aviation incidents? Get access to AeroInside Insights, unlimited read access and receive the daily newsletter.

Pick your plan and subscribe

Partner

Blockaviation logo

A new way to document and demonstrate airworthiness compliance and aircraft value. Find out more.

Virtual Speech logo

ELITE Simulation Solutions is a leading global provider of Flight Simulation Training Devices, IFR training software as well as flight controls and related services. Find out more.

Get updates

Never miss an article from AeroInside. Subscribe to our free weekly newsletter and join 5353 existing subscribers.

By subscribing, you accept our terms and conditions and that you've read our privacy policy.

AeroInside Blog
Popular aircraft
Airbus A320
Boeing 737-800
Boeing 737-800 MAX
Popular airlines
American Airlines
United
Delta
Air Canada
Lufthansa
British Airways